Time;durP1;ratioP1;P1;durP2;ratioP2;P2;SDS_P1;SDS_P2;PMS_P1;PMS_P2;Temp;Humidity;BMP_temperature;BMP_pressure;BME280_temperature;BME280_humidity;BME280_pressure;Samples;Min_cycle;Max_cycle;Signal;HPM_P1;HPM_P2
2022/12/31 00:02:00;;;;;;;30.05;20.83;;;10.20;99.90;;;;;;5087377;28;20028;-72
2022/12/31 00:04:27;;;;;;;10.90;8.93;;;10.20;99.90;;;;;;5105352;28;20158;-73
2022/12/31 00:06:53;;;;;;;10.77;8.75;;;10.30;99.90;;;;;;5085579;28;20032;-71
2022/12/31 00:09:18;;;;;;;10.15;9.05;;;10.30;99.90;;;;;;5069961;28;20028;-71
2022/12/31 00:11:44;;;;;;;12.18;9.68;;;10.30;99.90;;;;;;5086410;28;20027;-72
2022/12/31 00:14:10;;;;;;;11.27;8.73;;;10.40;99.90;;;;;;5107239;28;20039;-73
2022/12/31 00:16:39;;;;;;;10.55;8.82;;;10.40;99.90;;;;;;5082796;28;20026;-71
2022/12/31 00:19:06;;;;;;;10.13;8.43;;;10.50;99.90;;;;;;5105725;28;20063;-72
2022/12/31 00:21:33;;;;;;;10.80;9.05;;;10.50;99.90;;;;;;5104924;28;20016;-73
2022/12/31 00:24:00;;;;;;;12.77;9.05;;;10.50;99.90;;;;;;5090732;28;20410;-72
2022/12/31 00:26:29;;;;;;;10.27;8.95;;;10.50;99.90;;;;;;5110629;28;20053;-72
2022/12/31 00:28:57;;;;;;;13.82;10.40;;;10.50;99.90;;;;;;5110424;28;20220;-73
2022/12/31 00:31:24;;;;;;;10.13;8.48;;;10.50;99.90;;;;;;5088957;28;20375;-74
2022/12/31 00:33:50;;;;;;;11.57;9.25;;;10.50;99.90;;;;;;5089852;28;20031;-72
2022/12/31 00:36:28;;;;;;;10.20;9.07;;;10.60;99.90;;;;;;5110596;28;20621;-72
2022/12/31 00:38:56;;;;;;;10.40;9.23;;;10.60;99.90;;;;;;5080373;28;20031;-72
2022/12/31 00:41:22;;;;;;;10.88;8.82;;;10.60;99.90;;;;;;5089240;28;20036;-74
2022/12/31 00:43:51;;;;;;;10.48;8.32;;;10.60;99.90;;;;;;5108785;28;20045;-74
2022/12/31 00:46:18;;;;;;;10.60;8.73;;;10.50;99.90;;;;;;5089627;28;20388;-74
2022/12/31 00:48:44;;;;;;;10.27;8.80;;;10.60;99.90;;;;;;5091065;28;20031;-74
2022/12/31 00:51:12;;;;;;;11.38;9.18;;;10.60;99.90;;;;;;5098313;28;20035;-73
2022/12/31 00:53:38;;;;;;;10.13;7.75;;;10.60;99.90;;;;;;5080964;28;20201;-74
2022/12/31 00:56:07;;;;;;;8.70;7.80;;;10.60;99.90;;;;;;5095817;28;20026;-72
2022/12/31 00:58:33;;;;;;;10.05;7.90;;;10.60;99.90;;;;;;5091101;28;20124;-72
2022/12/31 01:01:08;;;;;;;9.73;8.05;;;10.70;99.90;;;;;;5088776;28;20031;-72
2022/12/31 01:03:34;;;;;;;8.88;7.70;;;10.70;99.90;;;;;;5107996;27;20081;-72
2022/12/31 01:05:59;;;;;;;8.93;7.28;;;10.70;99.90;;;;;;5090384;28;20059;-71
2022/12/31 01:08:25;;;;;;;10.60;6.97;;;10.80;99.90;;;;;;5109549;28;20051;-73
2022/12/31 01:13:35;;;;;;;9.95;6.57;;;10.90;99.90;;;;;;5103774;28;20540;-72
2022/12/31 01:16:12;;;;;;;8.63;6.50;;;10.90;99.90;;;;;;5090833;28;20039;-74
2022/12/31 01:18:38;;;;;;;7.72;6.10;;;10.90;99.90;;;;;;5080942;28;20106;-74
2022/12/31 01:21:07;;;;;;;8.27;6.07;;;10.90;99.90;;;;;;5095278;28;20091;-73
2022/12/31 01:23:33;;;;;;;8.43;6.53;;;10.90;99.90;;;;;;5091541;28;20080;-73
2022/12/31 01:26:05;;;;;;;11.30;6.25;;;11.00;99.90;;;;;;5109535;28;20031;-71
2022/12/31 01:28:31;;;;;;;7.03;6.10;;;11.00;99.90;;;;;;5088523;28;20034;-72
2022/12/31 01:30:57;;;;;;;7.25;6.43;;;11.00;99.90;;;;;;5104129;28;20046;-74
2022/12/31 01:33:23;;;;;;;8.73;6.45;;;11.00;99.90;;;;;;5089042;28;20051;-73
2022/12/31 01:35:49;;;;;;;8.73;6.18;;;11.00;99.90;;;;;;5092252;28;20067;-72
2022/12/31 01:38:15;;;;;;;7.78;5.72;;;11.00;99.90;;;;;;5088628;28;20678;-71
2022/12/31 01:40:41;;;;;;;10.98;6.50;;;11.00;99.90;;;;;;5106641;28;20069;-74
2022/12/31 01:43:18;;;;;;;8.65;6.53;;;11.10;99.90;;;;;;5090188;28;20058;-73
2022/12/31 01:45:48;;;;;;;9.77;7.05;;;11.10;99.90;;;;;;5107799;28;20047;-73
2022/12/31 01:48:18;;;;;;;9.52;6.43;;;11.00;99.90;;;;;;5089239;28;20031;-73
2022/12/31 01:50:46;;;;;;;7.13;5.93;;;11.10;99.90;;;;;;5090170;28;20019;-74
2022/12/31 01:53:13;;;;;;;8.10;6.20;;;11.10;99.90;;;;;;5089719;28;20042;-73
2022/12/31 01:55:48;;;;;;;7.50;6.10;;;11.00;99.90;;;;;;5075673;28;20038;-73
2022/12/31 01:58:35;;;;;;;9.15;7.05;;;11.10;99.90;;;;;;5093755;28;20034;-73
2022/12/31 02:01:02;;;;;;;8.82;6.22;;;11.00;99.90;;;;;;5075752;28;20030;-73
2022/12/31 02:03:28;;;;;;;9.68;6.57;;;11.10;99.90;;;;;;5108615;27;20027;-74
2022/12/31 02:05:58;;;;;;;6.93;5.80;;;11.10;99.90;;;;;;5089201;28;20080;-72
2022/12/31 02:08:24;;;;;;;5.80;5.13;;;11.10;99.90;;;;;;5072147;28;20039;-71
2022/12/31 02:10:50;;;;;;;10.55;6.20;;;11.10;99.90;;;;;;5106942;28;20045;-72
2022/12/31 02:13:16;;;;;;;8.50;5.38;;;11.10;99.90;;;;;;5111119;28;20560;-73
2022/12/31 02:16:15;;;;;;;7.05;5.55;;;11.10;99.90;;;;;;5087099;28;20530;-71
2022/12/31 02:18:55;;;;;;;7.20;5.70;;;11.10;99.90;;;;;;5085418;28;20028;-72
2022/12/31 02:21:32;;;;;;;10.00;6.78;;;11.10;99.90;;;;;;5103983;28;20031;-72
2022/12/31 02:24:45;;;;;;;7.75;6.10;;;11.20;99.90;;;;;;5089523;28;20092;-72
2022/12/31 02:27:57;;;;;;;8.32;6.03;;;11.20;99.90;;;;;;4984627;28;20046;-73
2022/12/31 02:30:25;;;;;;;9.18;6.50;;;11.20;99.90;;;;;;4989459;28;20026;-73
2022/12/31 02:32:54;;;;;;;10.13;5.72;;;11.20;99.90;;;;;;5070526;28;20430;-73
2022/12/31 02:35:40;;;;;;;6.20;5.13;;;11.20;99.90;;;;;;5104401;28;20028;-72
2022/12/31 02:38:19;;;;;;;7.13;5.93;;;11.20;99.90;;;;;;5106940;28;20032;-74
2022/12/31 02:40:46;;;;;;;6.75;5.90;;;11.30;99.90;;;;;;5088109;28;20024;-73
2022/12/31 02:43:12;;;;;;;7.97;6.03;;;11.30;99.90;;;;;;5106009;27;20042;-71
2022/12/31 02:45:41;;;;;;;9.80;5.70;;;11.30;99.90;;;;;;5106569;28;20027;-72
2022/12/31 02:48:28;;;;;;;6.97;5.07;;;11.30;99.90;;;;;;5086576;28;20030;-72
2022/12/31 02:51:13;;;;;;;7.25;5.90;;;11.30;99.90;;;;;;5088734;28;20105;-73
2022/12/31 02:53:49;;;;;;;7.18;5.15;;;11.20;99.90;;;;;;5089615;28;20024;-73
2022/12/31 02:56:15;;;;;;;7.95;5.65;;;11.20;99.90;;;;;;5085578;28;20130;-74
2022/12/31 03:04:32;;;;;;;13.73;6.10;;;11.20;99.90;;;;;;5104776;28;20545;-72
2022/12/31 03:07:06;;;;;;;6.50;4.82;;;11.20;99.90;;;;;;5102532;28;20023;-73
2022/12/31 03:09:32;;;;;;;7.63;5.60;;;11.20;99.90;;;;;;5107797;28;20032;-73
2022/12/31 03:14:44;;;;;;;7.85;4.93;;;11.10;99.90;;;;;;5104416;28;20035;-73
2022/12/31 03:17:10;;;;;;;8.13;4.80;;;11.10;99.90;;;;;;5101047;28;20039;-73
2022/12/31 03:22:26;;;;;;;6.30;4.47;;;11.00;99.90;;;;;;5104655;28;20640;-73
2022/12/31 03:27:38;;;;;;;5.63;4.03;;;11.00;99.90;;;;;;5109311;28;20498;-73
2022/12/31 03:30:05;;;;;;;6.05;3.70;;;11.00;99.90;;;;;;5108042;27;20028;-74
2022/12/31 03:32:30;;;;;;;5.75;3.28;;;11.00;99.90;;;;;;5087334;28;20467;-71
2022/12/31 03:34:56;;;;;;;5.32;3.08;;;11.00;99.90;;;;;;5103772;28;20039;-73
2022/12/31 03:37:22;;;;;;;5.13;2.80;;;10.90;99.90;;;;;;5106157;27;20617;-73
2022/12/31 03:39:47;;;;;;;3.85;2.97;;;10.90;99.90;;;;;;5104653;28;20027;-73
2022/12/31 03:42:13;;;;;;;4.22;2.55;;;10.90;99.90;;;;;;5107374;28;20587;-73
2022/12/31 03:44:39;;;;;;;4.32;3.28;;;10.90;99.90;;;;;;5106489;28;20050;-73
2022/12/31 03:47:04;;;;;;;6.70;2.83;;;10.90;99.90;;;;;;5107164;28;20120;-74
2022/12/31 03:49:30;;;;;;;3.63;2.35;;;10.90;99.90;;;;;;5069028;28;20120;-73
2022/12/31 03:51:56;;;;;;;3.47;2.38;;;10.80;99.90;;;;;;5091605;28;20020;-73
2022/12/31 03:54:21;;;;;;;3.05;2.60;;;10.80;99.90;;;;;;5088830;28;20024;-73
2022/12/31 03:56:47;;;;;;;3.28;2.72;;;10.80;99.90;;;;;;5104568;28;20016;-72
2022/12/31 03:59:13;;;;;;;5.00;2.78;;;10.80;99.90;;;;;;5106531;28;20008;-71
2022/12/31 04:01:38;;;;;;;3.20;2.90;;;10.80;99.90;;;;;;5106779;28;20031;-72
2022/12/31 04:04:04;;;;;;;5.82;4.13;;;10.80;99.90;;;;;;5106468;28;20015;-73
2022/12/31 04:06:30;;;;;;;6.68;4.63;;;10.80;99.90;;;;;;5100775;28;20031;-73
2022/12/31 04:08:55;;;;;;;8.00;5.30;;;10.80;99.90;;;;;;5104119;28;20543;-73
2022/12/31 04:11:21;;;;;;;8.18;6.00;;;10.80;99.90;;;;;;5089293;28;20027;-73
2022/12/31 04:13:47;;;;;;;8.27;4.93;;;10.80;99.90;;;;;;5093546;28;20028;-73
2022/12/31 04:16:12;;;;;;;11.10;6.88;;;10.90;99.90;;;;;;5102427;28;20036;-73
2022/12/31 04:18:38;;;;;;;11.65;6.90;;;10.90;99.90;;;;;;5088516;28;20023;-73
2022/12/31 04:21:04;;;;;;;7.05;5.65;;;10.80;99.90;;;;;;5086338;28;20084;-72
2022/12/31 04:23:30;;;;;;;11.02;7.50;;;10.90;99.90;;;;;;5082572;28;20094;-72
2022/12/31 04:25:56;;;;;;;8.05;6.32;;;10.90;99.90;;;;;;5103105;28;20110;-73
2022/12/31 04:28:22;;;;;;;8.27;6.50;;;10.90;99.90;;;;;;5105061;28;20123;-72
2022/12/31 04:30:47;;;;;;;10.35;7.13;;;10.90;99.90;;;;;;5102699;28;20428;-71
2022/12/31 04:33:13;;;;;;;10.77;7.50;;;10.90;99.90;;;;;;5105392;28;20035;-71
2022/12/31 04:35:39;;;;;;;9.50;7.60;;;10.90;99.90;;;;;;5086229;28;20038;-72
2022/12/31 04:38:04;;;;;;;7.97;6.88;;;10.90;99.90;;;;;;5065783;28;20080;-71
2022/12/31 04:40:30;;;;;;;11.57;8.88;;;10.90;99.90;;;;;;5084944;28;20034;-71
2022/12/31 04:42:56;;;;;;;10.52;7.88;;;10.90;99.90;;;;;;5088338;28;20409;-72
2022/12/31 04:45:22;;;;;;;11.73;8.27;;;10.90;99.90;;;;;;5103691;28;20127;-72
2022/12/31 04:47:47;;;;;;;13.00;7.18;;;11.00;99.90;;;;;;5088069;28;20552;-72
2022/12/31 04:50:13;;;;;;;15.15;8.48;;;10.90;99.90;;;;;;5086492;28;20574;-71
2022/12/31 04:52:39;;;;;;;11.18;7.63;;;11.00;99.90;;;;;;5089286;28;20107;-72
2022/12/31 04:55:05;;;;;;;10.10;6.80;;;10.90;99.90;;;;;;5104885;28;20039;-73
2022/12/31 04:57:31;;;;;;;14.40;7.20;;;11.00;99.90;;;;;;5102706;28;20453;-73
2022/12/31 04:59:56;;;;;;;9.68;7.00;;;10.90;99.90;;;;;;5102094;28;20055;-72
2022/12/31 05:02:22;;;;;;;11.82;7.95;;;11.00;99.90;;;;;;5104857;28;20069;-72
2022/12/31 05:04:47;;;;;;;11.63;7.47;;;11.00;99.90;;;;;;5103516;28;20529;-72
2022/12/31 05:07:13;;;;;;;9.70;6.07;;;11.00;99.90;;;;;;5084663;28;20833;-73
2022/12/31 05:09:39;;;;;;;11.18;6.47;;;11.00;99.90;;;;;;5084868;28;20051;-71
2022/12/31 05:12:05;;;;;;;9.13;6.28;;;11.00;99.90;;;;;;5108408;28;20032;-71
2022/12/31 05:14:31;;;;;;;9.20;5.43;;;11.00;99.90;;;;;;5108430;28;20127;-71
2022/12/31 05:16:57;;;;;;;8.68;5.00;;;11.00;99.90;;;;;;5089072;28;20095;-72
2022/12/31 05:19:23;;;;;;;8.32;5.25;;;10.90;99.90;;;;;;5091751;28;20028;-71
2022/12/31 05:22:27;;;;;;;11.30;5.78;;;10.90;99.90;;;;;;5107632;27;20034;-71
2022/12/31 05:24:34;;;;;;;8.70;5.55;;;10.90;99.90;;;;;;5105531;28;20513;-71
2022/12/31 05:27:00;;;;;;;9.32;5.70;;;10.90;99.90;;;;;;5108365;27;20024;-72
2022/12/31 05:29:26;;;;;;;7.00;5.18;;;10.80;99.90;;;;;;5101712;28;20059;-71
2022/12/31 05:31:52;;;;;;;5.30;3.90;;;10.80;99.90;;;;;;5090446;28;20071;-71
2022/12/31 05:34:18;;;;;;;5.13;3.88;;;10.80;99.90;;;;;;5107772;28;20395;-71
2022/12/31 05:36:43;;;;;;;6.90;4.20;;;10.80;99.90;;;;;;5107980;27;20074;-71
2022/12/31 05:39:09;;;;;;;6.82;4.43;;;10.80;99.90;;;;;;5089016;28;20031;-70
2022/12/31 05:41:35;;;;;;;5.13;3.95;;;10.70;99.90;;;;;;5091616;28;20056;-73
2022/12/31 05:44:00;;;;;;;7.53;4.00;;;10.80;99.90;;;;;;5089796;28;20372;-71
2022/12/31 05:46:26;;;;;;;5.00;3.95;;;10.80;99.90;;;;;;5092357;28;20027;-70
2022/12/31 05:48:52;;;;;;;7.10;4.10;;;10.70;99.90;;;;;;5090284;28;20036;-71
2022/12/31 05:51:17;;;;;;;8.32;4.57;;;10.80;99.90;;;;;;5093289;28;20023;-71
2022/12/31 05:53:43;;;;;;;6.07;4.20;;;10.70;99.90;;;;;;5095972;28;20127;-71
2022/12/31 05:56:08;;;;;;;5.97;4.57;;;10.80;99.90;;;;;;5112811;28;20047;-72
2022/12/31 05:58:34;;;;;;;6.85;4.20;;;10.80;99.90;;;;;;5109395;28;20103;-72
2022/12/31 06:01:00;;;;;;;5.95;4.22;;;10.70;99.90;;;;;;5074108;28;20039;-71
2022/12/31 06:03:26;;;;;;;8.80;4.30;;;10.70;99.90;;;;;;5092797;28;20031;-71
2022/12/31 06:05:52;;;;;;;10.32;4.60;;;10.80;99.90;;;;;;5106226;28;20256;-71
2022/12/31 06:08:17;;;;;;;6.53;3.60;;;10.70;99.90;;;;;;5090515;28;20030;-71
2022/12/31 06:10:43;;;;;;;8.05;3.33;;;10.70;99.90;;;;;;5106004;28;20019;-71
2022/12/31 06:13:09;;;;;;;6.03;3.53;;;10.70;99.90;;;;;;5088274;28;20027;-71
2022/12/31 06:15:38;;;;;;;4.00;2.83;;;10.70;99.90;;;;;;5106080;28;20028;-72
2022/12/31 06:18:05;;;;;;;7.60;3.13;;;10.70;99.90;;;;;;5107809;28;20031;-72
2022/12/31 06:20:31;;;;;;;5.50;2.70;;;10.70;99.90;;;;;;5108143;28;20032;-72
2022/12/31 06:22:56;;;;;;;4.75;2.60;;;10.70;99.90;;;;;;5107250;27;20746;-70
2022/12/31 06:25:22;;;;;;;5.35;2.65;;;10.70;99.90;;;;;;5104964;28;20032;-70
2022/12/31 06:27:48;;;;;;;3.83;2.20;;;10.60;99.90;;;;;;5089239;28;20046;-71
2022/12/31 06:30:13;;;;;;;3.90;1.80;;;10.60;99.90;;;;;;5103561;28;20055;-71
2022/12/31 06:32:39;;;;;;;5.32;2.13;;;10.60;99.90;;;;;;5109190;28;20047;-71
2022/12/31 06:35:06;;;;;;;3.92;2.03;;;10.60;99.90;;;;;;5105200;28;20075;-71
2022/12/31 06:37:32;;;;;;;2.38;1.73;;;10.60;99.90;;;;;;5091181;28;20028;-71
2022/12/31 06:39:58;;;;;;;5.70;2.50;;;10.60;99.90;;;;;;5087016;28;20076;-71
2022/12/31 06:42:26;;;;;;;3.35;2.10;;;10.60;99.90;;;;;;5090898;28;20405;-71
2022/12/31 06:44:52;;;;;;;3.13;1.27;;;10.60;99.90;;;;;;5083876;28;20714;-71
2022/12/31 06:47:17;;;;;;;1.98;1.35;;;10.60;99.90;;;;;;5107485;28;20032;-71
2022/12/31 06:49:43;;;;;;;2.50;1.45;;;10.50;99.90;;;;;;5105824;28;20162;-71
2022/12/31 06:52:09;;;;;;;1.83;1.02;;;10.50;99.90;;;;;;5105681;28;20027;-71
2022/12/31 06:54:35;;;;;;;2.17;1.33;;;10.50;99.90;;;;;;5104181;28;20091;-71
2022/12/31 06:57:02;;;;;;;2.78;1.80;;;10.50;99.90;;;;;;5103165;28;20019;-71
2022/12/31 06:59:29;;;;;;;3.15;1.90;;;10.50;99.90;;;;;;5087126;28;20036;-73
2022/12/31 07:02:20;;;;;;;3.83;2.00;;;10.50;99.90;;;;;;5089057;28;20019;-72
2022/12/31 07:05:01;;;;;;;5.22;2.30;;;10.50;99.90;;;;;;5094680;27;20345;-72
2022/12/31 07:07:45;;;;;;;2.90;1.98;;;10.50;99.90;;;;;;5098895;28;20024;-72
2022/12/31 07:10:29;;;;;;;4.68;2.60;;;10.50;99.90;;;;;;5103733;27;20056;-71
2022/12/31 07:13:01;;;;;;;6.53;2.92;;;10.40;99.90;;;;;;5103020;27;20027;-71
2022/12/31 07:15:35;;;;;;;8.48;3.00;;;10.50;99.90;;;;;;5086481;28;20034;-71
2022/12/31 07:18:35;;;;;;;3.75;2.88;;;10.40;99.90;;;;;;5087108;28;20032;-73
2022/12/31 07:21:01;;;;;;;6.07;3.03;;;10.50;99.90;;;;;;5090080;28;20092;-72
2022/12/31 07:23:27;;;;;;;4.18;2.83;;;10.50;99.90;;;;;;5085488;28;20408;-71
2022/12/31 07:26:21;;;;;;;5.53;3.25;;;10.50;99.90;;;;;;5089350;28;20080;-71
2022/12/31 07:29:14;;;;;;;5.10;3.00;;;10.40;99.90;;;;;;5086710;28;20051;-71
2022/12/31 07:32:16;;;;;;;6.00;3.42;;;10.40;99.90;;;;;;5105096;28;20026;-71
2022/12/31 07:35:05;;;;;;;8.55;2.83;;;10.40;99.90;;;;;;5109727;28;20027;-72
2022/12/31 07:37:56;;;;;;;5.70;3.00;;;10.40;99.90;;;;;;5115153;28;20024;-71
2022/12/31 07:40:46;;;;;;;7.00;2.97;;;10.40;99.90;;;;;;5087973;28;20043;-71
2022/12/31 07:43:39;;;;;;;5.03;2.73;;;10.40;99.90;;;;;;5099021;28;20285;-73
2022/12/31 07:46:13;;;;;;;6.28;2.92;;;10.50;99.90;;;;;;5081081;28;20032;-73
2022/12/31 07:48:42;;;;;;;3.45;2.10;;;10.40;99.90;;;;;;5107428;27;20031;-72
2022/12/31 07:51:09;;;;;;;5.53;2.10;;;10.40;99.90;;;;;;5106756;28;20045;-73
2022/12/31 07:53:35;;;;;;;4.10;2.00;;;10.40;99.90;;;;;;5087066;28;20091;-73
2022/12/31 07:56:04;;;;;;;1.85;1.30;;;10.40;99.90;;;;;;5105018;27;20486;-72
2022/12/31 07:58:30;;;;;;;2.40;1.00;;;10.40;99.90;;;;;;5104426;28;20032;-73
2022/12/31 08:00:57;;;;;;;2.45;0.88;;;10.40;99.90;;;;;;5079868;28;20050;-73
2022/12/31 08:03:45;;;;;;;2.08;0.95;;;10.40;99.90;;;;;;5086335;28;20547;-71
2022/12/31 08:06:20;;;;;;;3.45;0.90;;;10.40;99.90;;;;;;5066559;28;20553;-73
2022/12/31 08:09:00;;;;;;;3.13;0.93;;;10.30;99.90;;;;;;5087527;28;20027;-71
2022/12/31 08:11:41;;;;;;;1.33;0.80;;;10.30;99.90;;;;;;5103157;28;20055;-73
2022/12/31 08:14:12;;;;;;;1.15;0.90;;;10.30;99.90;;;;;;5086374;28;20028;-72
2022/12/31 08:16:38;;;;;;;1.23;0.82;;;10.40;99.90;;;;;;5102105;28;20063;-71
2022/12/31 08:19:04;;;;;;;2.33;1.08;;;10.30;99.90;;;;;;5087551;28;20055;-73
2022/12/31 08:21:49;;;;;;;4.03;1.60;;;10.30;99.90;;;;;;5102260;28;20518;-73
2022/12/31 08:24:52;;;;;;;5.47;2.67;;;10.40;99.90;;;;;;5082819;28;20048;-73
2022/12/31 08:27:47;;;;;;;6.40;2.97;;;10.40;99.90;;;;;;5087500;28;20032;-73
2022/12/31 08:30:19;;;;;;;6.13;3.15;;;10.50;99.90;;;;;;5094880;28;20044;-73
2022/12/31 08:33:03;;;;;;;6.30;3.65;;;10.50;99.90;;;;;;5070820;28;20143;-73
2022/12/31 08:36:26;;;;;;;5.40;3.58;;;10.50;99.90;;;;;;5099159;28;20641;-73
2022/12/31 08:39:43;;;;;;;9.07;3.63;;;10.50;99.90;;;;;;5056592;28;20407;-73
2022/12/31 08:42:39;;;;;;;4.97;2.83;;;10.50;99.90;;;;;;5005970;28;20029;-72
2022/12/31 08:45:31;;;;;;;5.32;2.95;;;10.60;99.90;;;;;;4993588;28;20049;-73
2022/12/31 08:48:00;;;;;;;4.03;2.60;;;10.60;99.90;;;;;;5010181;28;20076;-72
2022/12/31 08:50:26;;;;;;;5.28;2.75;;;10.60;99.90;;;;;;5004560;28;20716;-72
2022/12/31 08:52:53;;;;;;;3.53;2.60;;;10.60;99.90;;;;;;5011116;28;20095;-72
2022/12/31 08:55:19;;;;;;;4.85;2.20;;;10.60;99.90;;;;;;5008213;28;20037;-71
2022/12/31 08:57:45;;;;;;;3.10;1.80;;;10.70;99.90;;;;;;5011040;28;20049;-72
2022/12/31 09:00:15;;;;;;;3.30;1.77;;;10.60;99.90;;;;;;5024167;28;20045;-72
2022/12/31 09:03:11;;;;;;;2.53;1.90;;;10.70;99.90;;;;;;5008852;28;20037;-72
2022/12/31 09:06:04;;;;;;;3.10;1.85;;;10.70;99.90;;;;;;5019813;28;20168;-72
2022/12/31 09:08:57;;;;;;;2.13;1.45;;;10.70;99.90;;;;;;5018936;28;20064;-73
2022/12/31 09:11:47;;;;;;;3.20;2.30;;;10.80;99.90;;;;;;5022572;28;20033;-74
2022/12/31 09:14:24;;;;;;;3.22;2.40;;;10.80;99.90;;;;;;5095518;28;20036;-75
2022/12/31 09:17:17;;;;;;;3.30;2.38;;;10.80;99.90;;;;;;5111161;28;20032;-75
2022/12/31 09:19:42;;;;;;;3.53;2.08;;;10.80;99.90;;;;;;5096041;28;20548;-75
2022/12/31 09:22:09;;;;;;;4.57;2.70;;;10.80;99.90;;;;;;5103708;28;20063;-74
2022/12/31 09:24:35;;;;;;;6.75;3.78;;;11.00;99.90;;;;;;5086905;28;20023;-74
2022/12/31 09:27:14;;;;;;;5.85;3.65;;;11.00;99.90;;;;;;5087507;28;20028;-74
2022/12/31 09:30:02;;;;;;;5.55;3.40;;;11.00;99.90;;;;;;5092845;28;20027;-74
2022/12/31 09:32:37;;;;;;;4.20;3.33;;;11.00;99.90;;;;;;5106604;28;20020;-75
2022/12/31 09:35:12;;;;;;;4.68;3.30;;;10.90;99.90;;;;;;5069032;28;20049;-75
2022/12/31 09:37:54;;;;;;;4.63;2.80;;;11.00;99.90;;;;;;5106067;28;20035;-76
2022/12/31 09:40:42;;;;;;;3.35;2.58;;;11.00;99.90;;;;;;5112740;28;20028;-73
2022/12/31 09:43:08;;;;;;;4.63;2.90;;;11.00;99.90;;;;;;5069303;28;20040;-74
2022/12/31 09:45:58;;;;;;;4.88;3.42;;;11.10;99.90;;;;;;5103550;27;20032;-72
2022/12/31 09:49:04;;;;;;;5.43;3.00;;;11.00;99.90;;;;;;5083445;28;20040;-75
2022/12/31 09:51:50;;;;;;;5.95;3.88;;;11.00;99.90;;;;;;5056951;28;20022;-75
2022/12/31 09:54:27;;;;;;;5.70;3.88;;;10.90;99.90;;;;;;5091352;28;20542;-72
2022/12/31 09:57:22;;;;;;;4.70;2.88;;;11.10;99.90;;;;;;5086395;28;20452;-73
2022/12/31 10:00:03;;;;;;;3.55;2.75;;;11.00;99.90;;;;;;5110732;28;20042;-73
2022/12/31 10:02:44;;;;;;;6.22;3.10;;;11.00;99.90;;;;;;5087580;28;20776;-74
2022/12/31 10:05:13;;;;;;;3.88;2.80;;;11.00;99.90;;;;;;5084612;28;20027;-73
2022/12/31 10:07:50;;;;;;;4.75;2.33;;;11.00;99.90;;;;;;5088801;28;20019;-73
2022/12/31 10:10:45;;;;;;;4.65;2.30;;;11.00;99.90;;;;;;5089669;28;20020;-73
2022/12/31 10:13:26;;;;;;;2.95;2.28;;;11.00;99.90;;;;;;5093194;28;20031;-75
2022/12/31 10:16:03;;;;;;;3.10;1.95;;;11.00;99.90;;;;;;5076824;28;20030;-75
2022/12/31 10:19:00;;;;;;;3.88;2.10;;;11.00;99.90;;;;;;5097282;28;20077;-75
2022/12/31 10:21:45;;;;;;;2.25;1.60;;;11.10;99.90;;;;;;5090489;28;20554;-76
2022/12/31 10:24:33;;;;;;;2.40;1.60;;;11.00;99.90;;;;;;5076047;27;20039;-75
2022/12/31 10:27:06;;;;;;;2.33;1.40;;;11.10;99.90;;;;;;5109786;27;20054;-75
2022/12/31 10:30:16;;;;;;;1.88;1.30;;;11.10;99.90;;;;;;5104371;28;20084;-74
2022/12/31 10:32:57;;;;;;;1.95;1.23;;;11.10;99.90;;;;;;4988626;28;20050;-75
2022/12/31 10:35:42;;;;;;;;;;;11.20;99.90;;;;;;4987764;28;20050;-73
2022/12/31 10:38:24;;;;;;;2.65;1.77;;;11.20;99.90;;;;;;4989203;28;19944;-73
2022/12/31 10:41:30;;;;;;;4.10;2.20;;;11.20;99.90;;;;;;4986540;28;20030;-74
2022/12/31 10:44:25;;;;;;;3.53;1.80;;;11.30;99.90;;;;;;4984363;28;20038;-72
2022/12/31 10:47:09;;;;;;;3.72;2.22;;;11.30;99.90;;;;;;4949737;28;20126;-73
2022/12/31 10:49:55;;;;;;;2.97;1.80;;;11.30;99.90;;;;;;4987431;28;20030;-73
2022/12/31 10:52:51;;;;;;;3.10;1.75;;;11.30;99.90;;;;;;4965754;28;20045;-72
2022/12/31 10:56:13;;;;;;;2.45;1.85;;;11.30;99.90;;;;;;4971619;28;20034;-72
2022/12/31 10:59:04;;;;;;;3.78;2.20;;;11.30;99.90;;;;;;4928780;29;20032;-72
2022/12/31 11:01:31;;;;;;;7.07;2.85;;;11.30;99.90;;;;;;4944415;29;20569;-73
2022/12/31 11:04:18;;;;;;;3.90;2.47;;;11.30;99.90;;;;;;5008652;28;20040;-72
2022/12/31 11:07:21;;;;;;;3.08;2.30;;;11.30;99.90;;;;;;5030818;28;20109;-72
2022/12/31 11:10:15;;;;;;;3.53;2.15;;;11.40;99.90;;;;;;5029461;28;20075;-72
2022/12/31 11:12:46;;;;;;;3.13;2.05;;;11.40;99.90;;;;;;5045609;28;20460;-72
2022/12/31 11:15:55;;;;;;;3.88;1.85;;;11.40;99.90;;;;;;5044142;28;20516;-73
2022/12/31 11:18:43;;;;;;;3.55;2.25;;;11.50;99.90;;;;;;5022979;28;20093;-72
2022/12/31 11:21:24;;;;;;;6.80;2.22;;;11.50;99.90;;;;;;5017551;28;20657;-72
2022/12/31 11:24:13;;;;;;;2.60;1.83;;;11.50;99.90;;;;;;5023286;28;20044;-73
2022/12/31 11:26:53;;;;;;;2.40;1.85;;;11.60;99.90;;;;;;5028104;28;20513;-72
2022/12/31 11:29:32;;;;;;;2.25;1.67;;;11.60;99.90;;;;;;5064674;28;20122;-73
2022/12/31 11:32:08;;;;;;;2.92;1.77;;;11.60;99.90;;;;;;5054725;28;20495;-73
2022/12/31 11:34:36;;;;;;;2.05;1.63;;;11.70;99.90;;;;;;5099954;28;20035;-73
2022/12/31 11:37:11;;;;;;;2.20;1.80;;;11.70;99.90;;;;;;5085913;28;20028;-73
2022/12/31 11:40:13;;;;;;;2.28;1.60;;;11.70;99.90;;;;;;5071264;28;20590;-73
2022/12/31 11:43:12;;;;;;;2.45;1.65;;;11.80;99.90;;;;;;5070673;28;20523;-74
2022/12/31 11:45:47;;;;;;;2.92;1.73;;;11.90;99.90;;;;;;5094593;28;20031;-73
2022/12/31 11:49:04;;;;;;;2.03;1.77;;;11.90;99.90;;;;;;5096421;28;20028;-73
2022/12/31 11:51:50;;;;;;;2.08;1.73;;;12.00;99.90;;;;;;5060981;28;20032;-73
2022/12/31 11:54:35;;;;;;;2.00;1.80;;;12.00;99.90;;;;;;5083423;28;20045;-73
2022/12/31 11:57:23;;;;;;;1.88;1.50;;;12.10;99.90;;;;;;5085884;28;20028;-73
2022/12/31 11:59:56;;;;;;;1.98;1.60;;;12.10;99.90;;;;;;5079288;28;20025;-73
2022/12/31 12:02:26;;;;;;;2.33;1.88;;;12.10;99.90;;;;;;5101599;28;20038;-73
2022/12/31 12:04:55;;;;;;;2.13;1.60;;;12.10;99.90;;;;;;5101332;28;20027;-73
2022/12/31 12:07:22;;;;;;;4.03;1.80;;;12.10;99.90;;;;;;5105972;28;20027;-73
2022/12/31 12:09:51;;;;;;;3.25;1.80;;;12.10;99.90;;;;;;5106848;28;20425;-73
2022/12/31 12:12:17;;;;;;;2.80;1.40;;;12.20;99.90;;;;;;5086818;28;20102;-72
2022/12/31 12:14:47;;;;;;;2.13;1.70;;;12.20;99.90;;;;;;5087697;28;20550;-71
2022/12/31 12:17:31;;;;;;;1.65;1.30;;;12.30;99.90;;;;;;5101396;27;20119;-75
2022/12/31 12:20:01;;;;;;;2.70;1.30;;;12.30;99.90;;;;;;5102269;28;20023;-74
2022/12/31 12:22:29;;;;;;;3.53;2.00;;;12.30;99.90;;;;;;5066893;28;20131;-73
2022/12/31 12:24:55;;;;;;;1.98;1.05;;;12.30;99.90;;;;;;5082998;28;20139;-74
2022/12/31 12:27:28;;;;;;;2.03;1.30;;;12.40;99.90;;;;;;5086302;28;20028;-75
2022/12/31 12:29:54;;;;;;;2.35;1.10;;;12.50;99.90;;;;;;5086756;28;20163;-76
2022/12/31 12:32:24;;;;;;;2.05;1.20;;;12.50;99.90;;;;;;5085714;28;20019;-74
2022/12/31 12:34:52;;;;;;;2.13;1.10;;;12.60;99.90;;;;;;5094783;28;20031;-73
2022/12/31 12:37:23;;;;;;;1.80;0.88;;;12.50;99.90;;;;;;5085212;28;20444;-74
2022/12/31 12:40:00;;;;;;;1.13;0.90;;;12.60;99.90;;;;;;5083492;28;20435;-72
2022/12/31 12:42:27;;;;;;;2.17;1.17;;;12.50;99.90;;;;;;5086655;28;20027;-72
2022/12/31 12:45:13;;;;;;;2.25;1.08;;;12.60;99.90;;;;;;5100802;28;20104;-73
2022/12/31 12:47:42;;;;;;;2.03;1.27;;;12.60;99.90;;;;;;5106415;28;20019;-73
2022/12/31 12:50:20;;;;;;;1.70;1.05;;;12.60;99.90;;;;;;5076061;28;20035;-73
2022/12/31 12:52:52;;;;;;;2.78;1.00;;;12.60;99.90;;;;;;5105506;28;20042;-71
2022/12/31 12:55:46;;;;;;;3.20;1.33;;;12.60;99.90;;;;;;5094539;28;20061;-73
2022/12/31 12:58:33;;;;;;;3.03;1.33;;;12.60;99.90;;;;;;5112709;28;20810;-76
2022/12/31 13:01:20;;;;;;;1.35;1.10;;;12.60;99.90;;;;;;5085874;28;20053;-75
2022/12/31 13:04:18;;;;;;;2.10;0.95;;;12.60;99.90;;;;;;5096174;28;20760;-72
2022/12/31 13:06:56;;;;;;;1.98;1.10;;;12.70;99.90;;;;;;5117334;28;20119;-72
2022/12/31 13:09:53;;;;;;;0.95;0.90;;;12.70;99.90;;;;;;5095167;28;20460;-75
2022/12/31 13:12:25;;;;;;;1.52;1.10;;;12.70;99.90;;;;;;5085673;28;20031;-74
2022/12/31 13:15:05;;;;;;;1.65;1.15;;;12.70;99.90;;;;;;5082826;28;20030;-72
2022/12/31 13:18:14;;;;;;;2.35;1.33;;;12.70;99.90;;;;;;5066176;28;20028;-73
2022/12/31 13:21:02;;;;;;;1.67;1.10;;;12.70;99.90;;;;;;5064563;28;20544;-73
2022/12/31 13:23:42;;;;;;;1.55;1.25;;;12.70;99.90;;;;;;5091878;28;20109;-74
2022/12/31 13:26:08;;;;;;;2.80;1.50;;;12.70;99.90;;;;;;5084181;28;20038;-73
2022/12/31 13:28:37;;;;;;;3.30;1.10;;;12.70;99.90;;;;;;5081965;28;20027;-72
2022/12/31 13:31:08;;;;;;;2.63;2.00;;;12.70;99.90;;;;;;5097312;28;20028;-72
2022/12/31 13:33:42;;;;;;;3.78;2.55;;;12.70;99.90;;;;;;5074646;28;20027;-73
2022/12/31 13:36:15;;;;;;;5.68;2.53;;;12.80;99.90;;;;;;5090044;28;20032;-73
2022/12/31 13:38:42;;;;;;;4.53;1.80;;;12.80;99.90;;;;;;5094890;28;20522;-73
2022/12/31 13:41:23;;;;;;;3.17;1.73;;;12.70;99.90;;;;;;5108683;28;20035;-73